sensor_id;sensor_type;location;lat;lon;timestamp;temperature;humidity
47618;DHT22;33336;36.728;-4.414;2022-12-20T00:01:36;14.20;99.90
47618;DHT22;33336;36.728;-4.414;2022-12-20T00:06:38;14.20;99.90
47618;DHT22;33336;36.728;-4.414;2022-12-20T00:11:42;14.10;99.90
47618;DHT22;33336;36.728;-4.414;2022-12-20T00:16:47;14.10;99.90
47618;DHT22;33336;36.728;-4.414;2022-12-20T00:21:50;14.10;99.90
47618;DHT22;33336;36.728;-4.414;2022-12-20T00:26:53;14.10;99.90
47618;DHT22;33336;36.728;-4.414;2022-12-20T00:31:59;13.90;99.90
47618;DHT22;33336;36.728;-4.414;2022-12-20T00:37:01;13.90;99.90
47618;DHT22;33336;36.728;-4.414;2022-12-20T00:42:05;14.10;99.90
47618;DHT22;33336;36.728;-4.414;2022-12-20T00:47:09;13.90;99.90
47618;DHT22;33336;36.728;-4.414;2022-12-20T00:52:13;13.80;99.90
47618;DHT22;33336;36.728;-4.414;2022-12-20T00:57:16;13.90;99.90
47618;DHT22;33336;36.728;-4.414;2022-12-20T01:02:20;13.80;99.90
47618;DHT22;33336;36.728;-4.414;2022-12-20T01:07:23;13.80;99.90
47618;DHT22;33336;36.728;-4.414;2022-12-20T01:12:27;13.50;99.90
47618;DHT22;33336;36.728;-4.414;2022-12-20T01:17:31;13.70;99.90
47618;DHT22;33336;36.728;-4.414;2022-12-20T01:22:35;13.70;99.90
47618;DHT22;33336;36.728;-4.414;2022-12-20T01:27:38;13.50;99.90
47618;DHT22;33336;36.728;-4.414;2022-12-20T01:32:43;13.40;99.90
47618;DHT22;33336;36.728;-4.414;2022-12-20T01:37:46;13.30;99.90
47618;DHT22;33336;36.728;-4.414;2022-12-20T01:42:50;13.30;99.90
47618;DHT22;33336;36.728;-4.414;2022-12-20T01:47:55;13.30;99.90
47618;DHT22;33336;36.728;-4.414;2022-12-20T01:52:59;13.30;99.90
47618;DHT22;33336;36.728;-4.414;2022-12-20T01:58:06;13.30;99.90
47618;DHT22;33336;36.728;-4.414;2022-12-20T02:03:13;13.20;99.90
47618;DHT22;33336;36.728;-4.414;2022-12-20T02:08:18;13.20;99.90
47618;DHT22;33336;36.728;-4.414;2022-12-20T02:13:30;13.30;99.90
47618;DHT22;33336;36.728;-4.414;2022-12-20T02:18:40;13.40;99.90
47618;DHT22;33336;36.728;-4.414;2022-12-20T02:29:30;13.40;99.90
47618;DHT22;33336;36.728;-4.414;2022-12-20T02:34:39;13.20;99.90
47618;DHT22;33336;36.728;-4.414;2022-12-20T02:39:44;13.10;99.90
47618;DHT22;33336;36.728;-4.414;2022-12-20T02:44:50;13.20;99.90
47618;DHT22;33336;36.728;-4.414;2022-12-20T02:50:15;13.10;99.90
47618;DHT22;33336;36.728;-4.414;2022-12-20T02:55:26;13.10;99.90
47618;DHT22;33336;36.728;-4.414;2022-12-20T03:00:33;13.00;99.90
47618;DHT22;33336;36.728;-4.414;2022-12-20T03:05:44;13.00;99.90
47618;DHT22;33336;36.728;-4.414;2022-12-20T03:10:49;12.90;99.90
47618;DHT22;33336;36.728;-4.414;2022-12-20T03:15:52;12.80;99.90
47618;DHT22;33336;36.728;-4.414;2022-12-20T03:20:56;12.90;99.90
47618;DHT22;33336;36.728;-4.414;2022-12-20T03:26:00;13.00;99.90
47618;DHT22;33336;36.728;-4.414;2022-12-20T03:31:03;12.90;99.90
47618;DHT22;33336;36.728;-4.414;2022-12-20T03:36:08;12.90;99.90
47618;DHT22;33336;36.728;-4.414;2022-12-20T03:41:10;12.80;99.90
47618;DHT22;33336;36.728;-4.414;2022-12-20T03:46:14;12.70;99.90
47618;DHT22;33336;36.728;-4.414;2022-12-20T03:51:19;12.90;99.90
47618;DHT22;33336;36.728;-4.414;2022-12-20T03:56:22;13.00;99.90
47618;DHT22;33336;36.728;-4.414;2022-12-20T04:01:27;13.00;99.90
47618;DHT22;33336;36.728;-4.414;2022-12-20T04:06:31;13.00;99.90
47618;DHT22;33336;36.728;-4.414;2022-12-20T04:11:34;12.80;99.90
47618;DHT22;33336;36.728;-4.414;2022-12-20T04:16:37;12.90;99.90
47618;DHT22;33336;36.728;-4.414;2022-12-20T04:21:41;12.90;99.90
47618;DHT22;33336;36.728;-4.414;2022-12-20T04:26:45;12.80;99.90
47618;DHT22;33336;36.728;-4.414;2022-12-20T04:31:49;13.00;99.90
47618;DHT22;33336;36.728;-4.414;2022-12-20T04:36:54;13.00;99.90
47618;DHT22;33336;36.728;-4.414;2022-12-20T04:41:57;13.10;99.90
47618;DHT22;33336;36.728;-4.414;2022-12-20T04:47:01;13.10;99.90
47618;DHT22;33336;36.728;-4.414;2022-12-20T04:52:05;13.10;99.90
47618;DHT22;33336;36.728;-4.414;2022-12-20T04:57:22;13.00;99.90
47618;DHT22;33336;36.728;-4.414;2022-12-20T05:02:25;13.00;99.90
47618;DHT22;33336;36.728;-4.414;2022-12-20T05:07:29;13.00;99.90
47618;DHT22;33336;36.728;-4.414;2022-12-20T05:12:32;13.00;99.90
47618;DHT22;33336;36.728;-4.414;2022-12-20T05:17:35;12.80;99.90
47618;DHT22;33336;36.728;-4.414;2022-12-20T05:22:39;12.90;99.90
47618;DHT22;33336;36.728;-4.414;2022-12-20T05:28:00;12.60;99.90
47618;DHT22;33336;36.728;-4.414;2022-12-20T05:33:03;12.70;99.90
47618;DHT22;33336;36.728;-4.414;2022-12-20T05:38:08;12.80;99.90
47618;DHT22;33336;36.728;-4.414;2022-12-20T05:43:11;12.90;99.90
47618;DHT22;33336;36.728;-4.414;2022-12-20T05:48:16;13.00;99.90
47618;DHT22;33336;36.728;-4.414;2022-12-20T05:53:20;12.90;99.90
47618;DHT22;33336;36.728;-4.414;2022-12-20T05:58:23;13.00;99.90
47618;DHT22;33336;36.728;-4.414;2022-12-20T06:03:26;13.00;99.90
47618;DHT22;33336;36.728;-4.414;2022-12-20T06:08:30;13.00;99.90
47618;DHT22;33336;36.728;-4.414;2022-12-20T06:13:33;13.00;99.90
47618;DHT22;33336;36.728;-4.414;2022-12-20T06:18:37;13.00;99.90
47618;DHT22;33336;36.728;-4.414;2022-12-20T06:23:41;12.90;99.90
47618;DHT22;33336;36.728;-4.414;2022-12-20T06:28:45;12.70;99.90
47618;DHT22;33336;36.728;-4.414;2022-12-20T06:33:52;12.80;99.90
47618;DHT22;33336;36.728;-4.414;2022-12-20T06:38:57;12.80;99.90
47618;DHT22;33336;36.728;-4.414;2022-12-20T06:44:00;12.90;99.90
47618;DHT22;33336;36.728;-4.414;2022-12-20T06:49:04;13.10;99.90
47618;DHT22;33336;36.728;-4.414;2022-12-20T06:54:08;13.00;99.90
47618;DHT22;33336;36.728;-4.414;2022-12-20T06:59:12;12.70;99.90
47618;DHT22;33336;36.728;-4.414;2022-12-20T07:04:15;12.60;99.90
47618;DHT22;33336;36.728;-4.414;2022-12-20T07:09:20;12.60;99.90
47618;DHT22;33336;36.728;-4.414;2022-12-20T07:14:23;12.70;99.90
47618;DHT22;33336;36.728;-4.414;2022-12-20T07:19:27;12.60;99.90
47618;DHT22;33336;36.728;-4.414;2022-12-20T07:24:31;12.70;99.90
47618;DHT22;33336;36.728;-4.414;2022-12-20T07:29:35;12.90;99.90
47618;DHT22;33336;36.728;-4.414;2022-12-20T07:34:40;12.90;99.90
47618;DHT22;33336;36.728;-4.414;2022-12-20T07:39:47;13.00;99.90
47618;DHT22;33336;36.728;-4.414;2022-12-20T07:44:57;13.10;99.90
47618;DHT22;33336;36.728;-4.414;2022-12-20T07:50:00;13.10;99.90
47618;DHT22;33336;36.728;-4.414;2022-12-20T07:55:06;13.10;99.90
47618;DHT22;33336;36.728;-4.414;2022-12-20T08:00:11;13.10;99.90
47618;DHT22;33336;36.728;-4.414;2022-12-20T08:05:15;13.10;99.90
47618;DHT22;33336;36.728;-4.414;2022-12-20T08:10:21;13.20;99.90
47618;DHT22;33336;36.728;-4.414;2022-12-20T08:15:23;13.20;99.90
47618;DHT22;33336;36.728;-4.414;2022-12-20T08:20:27;13.50;99.90
47618;DHT22;33336;36.728;-4.414;2022-12-20T08:25:33;13.70;99.90
47618;DHT22;33336;36.728;-4.414;2022-12-20T08:30:36;13.70;99.90
47618;DHT22;33336;36.728;-4.414;2022-12-20T08:35:39;13.90;99.90
47618;DHT22;33336;36.728;-4.414;2022-12-20T08:40:43;14.00;99.90
47618;DHT22;33336;36.728;-4.414;2022-12-20T08:45:51;14.00;99.90
47618;DHT22;33336;36.728;-4.414;2022-12-20T08:50:54;14.10;99.90
47618;DHT22;33336;36.728;-4.414;2022-12-20T08:56:04;14.20;99.90
47618;DHT22;33336;36.728;-4.414;2022-12-20T09:01:10;14.40;99.90
47618;DHT22;33336;36.728;-4.414;2022-12-20T09:06:14;14.50;99.90
47618;DHT22;33336;36.728;-4.414;2022-12-20T09:11:21;14.60;99.90
47618;DHT22;33336;36.728;-4.414;2022-12-20T09:16:34;14.60;99.90
47618;DHT22;33336;36.728;-4.414;2022-12-20T09:21:38;14.90;99.90
47618;DHT22;33336;36.728;-4.414;2022-12-20T09:26:42;15.00;99.90
47618;DHT22;33336;36.728;-4.414;2022-12-20T09:31:48;15.20;99.90
47618;DHT22;33336;36.728;-4.414;2022-12-20T09:36:51;15.20;99.90
47618;DHT22;33336;36.728;-4.414;2022-12-20T09:41:56;15.40;99.90
47618;DHT22;33336;36.728;-4.414;2022-12-20T09:47:02;15.20;99.90
47618;DHT22;33336;36.728;-4.414;2022-12-20T09:52:28;15.10;99.90
47618;DHT22;33336;36.728;-4.414;2022-12-20T09:57:48;15.20;99.90
47618;DHT22;33336;36.728;-4.414;2022-12-20T10:02:52;15.30;99.90
47618;DHT22;33336;36.728;-4.414;2022-12-20T10:07:59;15.50;99.90
47618;DHT22;33336;36.728;-4.414;2022-12-20T10:13:16;15.50;99.90
47618;DHT22;33336;36.728;-4.414;2022-12-20T10:18:35;15.50;99.90
47618;DHT22;33336;36.728;-4.414;2022-12-20T10:23:44;15.50;99.90
47618;DHT22;33336;36.728;-4.414;2022-12-20T10:28:49;15.50;99.90
47618;DHT22;33336;36.728;-4.414;2022-12-20T10:33:53;15.50;99.90
47618;DHT22;33336;36.728;-4.414;2022-12-20T10:38:57;15.50;99.90
47618;DHT22;33336;36.728;-4.414;2022-12-20T10:44:04;15.40;99.90
47618;DHT22;33336;36.728;-4.414;2022-12-20T10:49:29;15.60;99.90
47618;DHT22;33336;36.728;-4.414;2022-12-20T10:54:34;15.90;99.90
47618;DHT22;33336;36.728;-4.414;2022-12-20T10:59:42;16.40;99.90
47618;DHT22;33336;36.728;-4.414;2022-12-20T11:04:57;16.70;99.90
47618;DHT22;33336;36.728;-4.414;2022-12-20T11:10:03;16.80;99.90
47618;DHT22;33336;36.728;-4.414;2022-12-20T11:15:23;17.00;99.90
47618;DHT22;33336;36.728;-4.414;2022-12-20T11:20:34;17.60;99.90
47618;DHT22;33336;36.728;-4.414;2022-12-20T11:25:49;18.00;99.90
47618;DHT22;33336;36.728;-4.414;2022-12-20T11:31:02;18.20;99.90
47618;DHT22;33336;36.728;-4.414;2022-12-20T11:36:19;17.90;99.90
47618;DHT22;33336;36.728;-4.414;2022-12-20T11:41:29;17.80;99.90
47618;DHT22;33336;36.728;-4.414;2022-12-20T11:46:48;18.10;99.90
47618;DHT22;33336;36.728;-4.414;2022-12-20T11:52:02;18.10;99.90
47618;DHT22;33336;36.728;-4.414;2022-12-20T11:57:14;18.60;99.90
47618;DHT22;33336;36.728;-4.414;2022-12-20T12:02:25;18.50;99.90
47618;DHT22;33336;36.728;-4.414;2022-12-20T12:07:31;18.50;99.90
47618;DHT22;33336;36.728;-4.414;2022-12-20T12:12:39;18.30;99.90
47618;DHT22;33336;36.728;-4.414;2022-12-20T12:17:49;18.60;99.90
47618;DHT22;33336;36.728;-4.414;2022-12-20T12:22:57;18.90;99.90
47618;DHT22;33336;36.728;-4.414;2022-12-20T12:28:04;18.80;99.90
47618;DHT22;33336;36.728;-4.414;2022-12-20T12:33:12;18.60;99.90
47618;DHT22;33336;36.728;-4.414;2022-12-20T12:38:36;18.70;99.90
47618;DHT22;33336;36.728;-4.414;2022-12-20T12:43:48;19.10;99.90
47618;DHT22;33336;36.728;-4.414;2022-12-20T12:48:57;19.60;99.90
47618;DHT22;33336;36.728;-4.414;2022-12-20T12:54:11;20.40;99.90
47618;DHT22;33336;36.728;-4.414;2022-12-20T13:04:55;20.20;99.90
47618;DHT22;33336;36.728;-4.414;2022-12-20T13:09:58;20.60;99.90
47618;DHT22;33336;36.728;-4.414;2022-12-20T13:15:01;20.40;99.90
47618;DHT22;33336;36.728;-4.414;2022-12-20T13:20:17;20.20;99.90
47618;DHT22;33336;36.728;-4.414;2022-12-20T13:25:27;20.40;99.90
47618;DHT22;33336;36.728;-4.414;2022-12-20T13:30:32;21.10;99.90
47618;DHT22;33336;36.728;-4.414;2022-12-20T13:36:04;22.10;99.90
47618;DHT22;33336;36.728;-4.414;2022-12-20T13:41:16;22.10;99.90
47618;DHT22;33336;36.728;-4.414;2022-12-20T13:46:24;22.40;99.90
47618;DHT22;33336;36.728;-4.414;2022-12-20T13:51:30;24.00;98.70
47618;DHT22;33336;36.728;-4.414;2022-12-20T13:56:38;22.30;98.40
47618;DHT22;33336;36.728;-4.414;2022-12-20T14:01:48;23.40;97.20
47618;DHT22;33336;36.728;-4.414;2022-12-20T14:06:55;25.70;96.70
47618;DHT22;33336;36.728;-4.414;2022-12-20T14:12:04;26.90;94.40
47618;DHT22;33336;36.728;-4.414;2022-12-20T14:17:15;26.00;94.00
47618;DHT22;33336;36.728;-4.414;2022-12-20T14:22:19;23.80;94.70
47618;DHT22;33336;36.728;-4.414;2022-12-20T14:27:22;24.80;95.40
47618;DHT22;33336;36.728;-4.414;2022-12-20T14:32:26;26.10;93.80
47618;DHT22;33336;36.728;-4.414;2022-12-20T14:37:33;26.00;93.80
47618;DHT22;33336;36.728;-4.414;2022-12-20T14:42:39;27.40;93.50
47618;DHT22;33336;36.728;-4.414;2022-12-20T14:47:48;27.70;92.50
47618;DHT22;33336;36.728;-4.414;2022-12-20T14:53:18;28.40;92.60
47618;DHT22;33336;36.728;-4.414;2022-12-20T14:58:25;29.80;91.40
47618;DHT22;33336;36.728;-4.414;2022-12-20T15:03:30;30.60;90.00
47618;DHT22;33336;36.728;-4.414;2022-12-20T15:08:37;29.60;87.60
47618;DHT22;33336;36.728;-4.414;2022-12-20T15:13:42;28.00;89.40
47618;DHT22;33336;36.728;-4.414;2022-12-20T15:18:45;28.50;91.00
47618;DHT22;33336;36.728;-4.414;2022-12-20T15:23:52;28.60;89.10
47618;DHT22;33336;36.728;-4.414;2022-12-20T15:28:55;27.20;90.30
47618;DHT22;33336;36.728;-4.414;2022-12-20T15:33:59;28.00;91.30
47618;DHT22;33336;36.728;-4.414;2022-12-20T15:39:04;28.90;89.90
47618;DHT22;33336;36.728;-4.414;2022-12-20T15:44:13;28.00;90.30
47618;DHT22;33336;36.728;-4.414;2022-12-20T15:49:18;27.80;90.00
47618;DHT22;33336;36.728;-4.414;2022-12-20T15:54:33;26.80;91.20
47618;DHT22;33336;36.728;-4.414;2022-12-20T15:59:40;27.10;90.90
47618;DHT22;33336;36.728;-4.414;2022-12-20T16:04:44;25.90;91.10
47618;DHT22;33336;36.728;-4.414;2022-12-20T16:09:48;26.20;91.60
47618;DHT22;33336;36.728;-4.414;2022-12-20T16:14:51;26.40;91.90
47618;DHT22;33336;36.728;-4.414;2022-12-20T16:19:54;27.10;91.30
47618;DHT22;33336;36.728;-4.414;2022-12-20T16:24:58;27.00;91.40
47618;DHT22;33336;36.728;-4.414;2022-12-20T16:30:01;26.90;90.70
47618;DHT22;33336;36.728;-4.414;2022-12-20T16:35:07;26.60;91.40
47618;DHT22;33336;36.728;-4.414;2022-12-20T16:40:13;26.30;91.70
47618;DHT22;33336;36.728;-4.414;2022-12-20T16:45:20;25.90;91.80
47618;DHT22;33336;36.728;-4.414;2022-12-20T16:50:25;25.30;92.00
47618;DHT22;33336;36.728;-4.414;2022-12-20T16:55:31;24.50;93.00
47618;DHT22;33336;36.728;-4.414;2022-12-20T17:00:34;24.00;93.50
47618;DHT22;33336;36.728;-4.414;2022-12-20T17:05:39;23.50;94.00
47618;DHT22;33336;36.728;-4.414;2022-12-20T17:10:43;23.00;94.70
47618;DHT22;33336;36.728;-4.414;2022-12-20T17:15:47;22.80;95.10
47618;DHT22;33336;36.728;-4.414;2022-12-20T17:20:49;22.20;96.10
47618;DHT22;33336;36.728;-4.414;2022-12-20T17:25:55;22.10;96.10
47618;DHT22;33336;36.728;-4.414;2022-12-20T17:30:58;21.60;96.90
47618;DHT22;33336;36.728;-4.414;2022-12-20T17:36:02;21.50;97.00
47618;DHT22;33336;36.728;-4.414;2022-12-20T17:41:11;21.40;97.20
47618;DHT22;33336;36.728;-4.414;2022-12-20T17:46:23;20.90;98.30
47618;DHT22;33336;36.728;-4.414;2022-12-20T17:51:28;20.70;98.70
47618;DHT22;33336;36.728;-4.414;2022-12-20T17:56:35;20.60;98.90
47618;DHT22;33336;36.728;-4.414;2022-12-20T18:01:38;20.30;99.70
47618;DHT22;33336;36.728;-4.414;2022-12-20T18:06:43;20.10;99.90
47618;DHT22;33336;36.728;-4.414;2022-12-20T18:11:48;20.10;99.90
47618;DHT22;33336;36.728;-4.414;2022-12-20T18:16:52;20.00;99.90
47618;DHT22;33336;36.728;-4.414;2022-12-20T18:21:55;19.90;99.90
47618;DHT22;33336;36.728;-4.414;2022-12-20T18:27:00;19.60;99.90
47618;DHT22;33336;36.728;-4.414;2022-12-20T18:32:03;19.40;99.90
47618;DHT22;33336;36.728;-4.414;2022-12-20T18:37:07;19.50;99.90
47618;DHT22;33336;36.728;-4.414;2022-12-20T18:42:11;19.20;99.90
47618;DHT22;33336;36.728;-4.414;2022-12-20T18:47:15;19.10;99.90
47618;DHT22;33336;36.728;-4.414;2022-12-20T18:52:17;19.10;99.90
47618;DHT22;33336;36.728;-4.414;2022-12-20T18:57:22;19.20;99.90
47618;DHT22;33336;36.728;-4.414;2022-12-20T19:02:25;19.10;99.90
47618;DHT22;33336;36.728;-4.414;2022-12-20T19:07:28;18.90;99.90
47618;DHT22;33336;36.728;-4.414;2022-12-20T19:12:33;18.90;99.90
47618;DHT22;33336;36.728;-4.414;2022-12-20T19:17:37;18.80;99.90
47618;DHT22;33336;36.728;-4.414;2022-12-20T19:22:39;18.80;99.90
47618;DHT22;33336;36.728;-4.414;2022-12-20T19:27:44;18.70;99.90
47618;DHT22;33336;36.728;-4.414;2022-12-20T19:32:48;18.70;99.90
47618;DHT22;33336;36.728;-4.414;2022-12-20T19:37:51;18.40;99.90
47618;DHT22;33336;36.728;-4.414;2022-12-20T19:42:56;18.40;99.90
47618;DHT22;33336;36.728;-4.414;2022-12-20T19:48:00;18.20;99.90
47618;DHT22;33336;36.728;-4.414;2022-12-20T19:53:03;18.20;99.90
47618;DHT22;33336;36.728;-4.414;2022-12-20T19:58:07;18.20;99.90
47618;DHT22;33336;36.728;-4.414;2022-12-20T20:03:10;18.00;99.90
47618;DHT22;33336;36.728;-4.414;2022-12-20T20:08:14;18.00;99.90
47618;DHT22;33336;36.728;-4.414;2022-12-20T20:13:18;17.90;99.90
47618;DHT22;33336;36.728;-4.414;2022-12-20T20:18:22;17.80;99.90
47618;DHT22;33336;36.728;-4.414;2022-12-20T20:23:26;17.70;99.90
47618;DHT22;33336;36.728;-4.414;2022-12-20T20:28:34;17.70;99.90
47618;DHT22;33336;36.728;-4.414;2022-12-20T20:33:37;17.70;99.90
47618;DHT22;33336;36.728;-4.414;2022-12-20T20:38:41;17.50;99.90
47618;DHT22;33336;36.728;-4.414;2022-12-20T20:43:45;17.50;99.90
47618;DHT22;33336;36.728;-4.414;2022-12-20T20:48:49;17.30;99.90
47618;DHT22;33336;36.728;-4.414;2022-12-20T20:53:51;17.40;99.90
47618;DHT22;33336;36.728;-4.414;2022-12-20T20:58:56;17.50;99.90
47618;DHT22;33336;36.728;-4.414;2022-12-20T21:03:59;17.50;99.90
47618;DHT22;33336;36.728;-4.414;2022-12-20T21:09:03;17.50;99.90
47618;DHT22;33336;36.728;-4.414;2022-12-20T21:14:08;17.40;99.90
47618;DHT22;33336;36.728;-4.414;2022-12-20T21:19:12;17.20;99.90
47618;DHT22;33336;36.728;-4.414;2022-12-20T21:24:14;17.40;99.90
47618;DHT22;33336;36.728;-4.414;2022-12-20T21:29:19;17.40;99.90
47618;DHT22;33336;36.728;-4.414;2022-12-20T21:34:22;17.50;99.90
47618;DHT22;33336;36.728;-4.414;2022-12-20T21:39:26;17.30;99.90
47618;DHT22;33336;36.728;-4.414;2022-12-20T21:44:30;16.70;99.90
47618;DHT22;33336;36.728;-4.414;2022-12-20T21:49:33;16.90;99.90
47618;DHT22;33336;36.728;-4.414;2022-12-20T21:54:36;16.90;99.90
47618;DHT22;33336;36.728;-4.414;2022-12-20T21:59:42;17.00;99.90
47618;DHT22;33336;36.728;-4.414;2022-12-20T22:04:44;16.90;99.90
47618;DHT22;33336;36.728;-4.414;2022-12-20T22:09:48;16.80;99.90
47618;DHT22;33336;36.728;-4.414;2022-12-20T22:14:52;17.00;99.90
47618;DHT22;33336;36.728;-4.414;2022-12-20T22:19:56;16.90;99.90
47618;DHT22;33336;36.728;-4.414;2022-12-20T22:24:59;16.80;99.90
47618;DHT22;33336;36.728;-4.414;2022-12-20T22:30:08;16.80;99.90
47618;DHT22;33336;36.728;-4.414;2022-12-20T22:35:11;16.90;99.90
47618;DHT22;33336;36.728;-4.414;2022-12-20T22:40:15;16.70;99.90
47618;DHT22;33336;36.728;-4.414;2022-12-20T22:45:19;16.70;99.90
47618;DHT22;33336;36.728;-4.414;2022-12-20T22:50:22;16.80;99.90
47618;DHT22;33336;36.728;-4.414;2022-12-20T22:55:25;16.70;99.90
47618;DHT22;33336;36.728;-4.414;2022-12-20T23:00:30;16.70;99.90
47618;DHT22;33336;36.728;-4.414;2022-12-20T23:05:34;16.70;99.90
47618;DHT22;33336;36.728;-4.414;2022-12-20T23:10:38;16.40;99.90
47618;DHT22;33336;36.728;-4.414;2022-12-20T23:16:00;16.30;99.90
47618;DHT22;33336;36.728;-4.414;2022-12-20T23:21:04;16.50;99.90
47618;DHT22;33336;36.728;-4.414;2022-12-20T23:26:28;16.50;99.90
47618;DHT22;33336;36.728;-4.414;2022-12-20T23:31:48;16.20;99.90
47618;DHT22;33336;36.728;-4.414;2022-12-20T23:36:56;16.50;99.90
47618;DHT22;33336;36.728;-4.414;2022-12-20T23:42:01;16.60;99.90
47618;DHT22;33336;36.728;-4.414;2022-12-20T23:47:05;16.70;99.90
47618;DHT22;33336;36.728;-4.414;2022-12-20T23:52:10;16.70;99.90
47618;DHT22;33336;36.728;-4.414;2022-12-20T23:57:13;16.70;99.90
